createdAt,value
2023-02-18T00:01:23.135Z,9.81
2023-02-18T00:03:50.453Z,9.73
2023-02-18T00:06:22.716Z,9.71
2023-02-18T00:08:49.980Z,9.63
2023-02-18T00:11:18.662Z,9.89
2023-02-18T00:13:50.577Z,10.01
2023-02-18T00:16:17.050Z,9.90
2023-02-18T00:18:43.488Z,9.79
2023-02-18T00:21:10.064Z,9.76
2023-02-18T00:23:36.579Z,9.91
2023-02-18T00:26:09.758Z,9.80
2023-02-18T00:28:36.737Z,9.67
2023-02-18T00:31:10.926Z,9.82
2023-02-18T00:33:38.078Z,9.92
2023-02-18T00:36:07.058Z,9.94
2023-02-18T00:38:34.035Z,9.79
2023-02-18T00:41:01.094Z,9.69
2023-02-18T00:43:28.320Z,9.74
2023-02-18T00:45:55.020Z,9.98
2023-02-18T00:48:21.617Z,9.83
2023-02-18T00:50:48.369Z,9.85
2023-02-18T00:53:14.903Z,9.81
2023-02-18T00:55:43.358Z,9.96
2023-02-18T00:58:11.557Z,9.95
2023-02-18T01:00:38.329Z,9.90
2023-02-18T01:03:07.658Z,9.82
2023-02-18T01:05:34.876Z,9.91
2023-02-18T01:08:03.476Z,9.93
2023-02-18T01:10:29.912Z,9.77
2023-02-18T01:12:56.397Z,9.75
2023-02-18T01:15:23.789Z,9.66
2023-02-18T01:17:51.837Z,9.96
2023-02-18T01:20:19.819Z,9.94
2023-02-18T01:22:46.238Z,9.94
2023-02-18T01:25:13.326Z,9.86
2023-02-18T01:27:39.764Z,9.87
2023-02-18T01:30:09.431Z,9.91
2023-02-18T01:32:35.840Z,9.88
2023-02-18T01:35:03.950Z,9.96
2023-02-18T01:37:31.754Z,10.05
2023-02-18T01:39:58.201Z,9.90
2023-02-18T01:42:28.929Z,9.89
2023-02-18T01:45:33.185Z,9.75
2023-02-18T01:48:17.328Z,9.81
2023-02-18T01:50:47.494Z,9.89
2023-02-18T01:53:16.785Z,9.94
2023-02-18T01:55:43.575Z,9.93
2023-02-18T01:58:12.886Z,9.89
2023-02-18T02:00:40.799Z,9.99
2023-02-18T02:03:07.975Z,9.79
2023-02-18T02:05:34.994Z,9.79
2023-02-18T02:08:02.645Z,9.88
2023-02-18T02:10:42.428Z,9.82
2023-02-18T02:13:22.014Z,9.85
2023-02-18T02:15:59.840Z,9.89
2023-02-18T02:18:44.189Z,9.81
2023-02-18T02:21:47.240Z,9.71
2023-02-18T02:24:28.969Z,9.65
2023-02-18T02:27:21.820Z,9.79
2023-02-18T02:30:26.148Z,9.67
2023-02-18T02:33:16.980Z,9.74
2023-02-18T02:35:43.342Z,9.81
2023-02-18T02:38:24.449Z,9.64
2023-02-18T02:41:02.313Z,9.64
2023-02-18T02:43:34.558Z,9.80
2023-02-18T02:46:17.257Z,9.76
2023-02-18T02:48:50.620Z,9.84
2023-02-18T02:51:27.067Z,9.78
2023-02-18T02:53:53.759Z,9.79
2023-02-18T02:56:24.945Z,9.71
2023-02-18T02:59:04.163Z,9.73
2023-02-18T03:01:53.655Z,9.64
2023-02-18T03:05:02.470Z,9.80
2023-02-18T03:07:47.308Z,9.74
2023-02-18T03:10:57.090Z,9.71
2023-02-18T03:13:53.707Z,9.69
2023-02-18T03:16:38.605Z,9.64
2023-02-18T03:19:14.271Z,9.71
2023-02-18T03:22:06.968Z,9.82
2023-02-18T03:24:46.607Z,9.85
2023-02-18T03:27:17.600Z,9.71
2023-02-18T03:29:48.772Z,9.78
2023-02-18T03:32:19.346Z,9.65
2023-02-18T03:34:51.576Z,9.62
2023-02-18T03:37:20.816Z,9.70
2023-02-18T03:39:51.519Z,9.77
2023-02-18T03:42:18.786Z,9.70
2023-02-18T03:44:45.281Z,9.83
2023-02-18T03:47:12.479Z,9.69
2023-02-18T03:49:40.967Z,9.92
2023-02-18T03:52:07.537Z,9.69
2023-02-18T03:54:33.997Z,9.74
2023-02-18T03:57:00.438Z,9.65
2023-02-18T03:59:27.939Z,9.63
2023-02-18T04:01:54.374Z,9.69
2023-02-18T04:04:20.911Z,9.69
2023-02-18T04:06:47.337Z,9.67
2023-02-18T04:09:13.737Z,9.50
2023-02-18T04:11:40.865Z,9.59
2023-02-18T04:14:08.225Z,9.77
2023-02-18T04:16:34.748Z,9.68
2023-02-18T04:19:01.216Z,9.75
2023-02-18T04:21:28.656Z,9.54
2023-02-18T04:23:55.087Z,9.71
2023-02-18T04:26:34.396Z,9.69
2023-02-18T04:29:00.824Z,9.60
2023-02-18T04:31:27.420Z,9.72
2023-02-18T04:33:53.921Z,9.68
2023-02-18T04:36:20.455Z,9.63
2023-02-18T04:38:47.018Z,9.82
2023-02-18T04:41:17.525Z,9.67
2023-02-18T04:43:43.978Z,9.79
2023-02-18T04:46:10.806Z,9.72
2023-02-18T04:48:37.487Z,9.79
2023-02-18T04:51:10.967Z,9.76
2023-02-18T04:53:37.573Z,9.82
2023-02-18T04:56:04.356Z,9.88
2023-02-18T04:58:31.900Z,9.89
2023-02-18T05:01:03.520Z,9.88
2023-02-18T05:03:31.059Z,9.75
2023-02-18T05:05:58.048Z,9.91
2023-02-18T05:08:24.725Z,9.94
2023-02-18T05:10:51.317Z,9.87
2023-02-18T05:13:17.930Z,9.78
2023-02-18T05:15:44.412Z,9.82
2023-02-18T05:18:10.976Z,9.92
2023-02-18T05:20:37.568Z,9.79
2023-02-18T05:23:04.060Z,9.80
2023-02-18T05:25:36.240Z,9.85
2023-02-18T05:28:02.697Z,9.84
2023-02-18T05:30:29.407Z,9.74
2023-02-18T05:32:55.885Z,9.84
2023-02-18T05:35:22.342Z,9.93
2023-02-18T05:37:54.721Z,9.88
2023-02-18T05:40:21.339Z,9.88
2023-02-18T05:42:48.891Z,9.81
2023-02-18T05:45:15.674Z,9.75
2023-02-18T05:47:42.094Z,9.79
2023-02-18T05:50:08.898Z,9.89
2023-02-18T05:52:35.336Z,9.85
2023-02-18T05:55:01.822Z,9.75
2023-02-18T05:57:28.334Z,9.83
2023-02-18T05:59:57.535Z,9.71
2023-02-18T06:02:24.744Z,9.66
2023-02-18T06:04:51.286Z,9.55
2023-02-18T06:07:18.367Z,9.80
2023-02-18T06:09:44.807Z,9.69
2023-02-18T06:12:11.544Z,9.55
2023-02-18T06:14:38.312Z,9.57
2023-02-18T06:17:04.968Z,9.72
2023-02-18T06:19:31.504Z,9.47
2023-02-18T06:21:58.031Z,9.43
2023-02-18T06:24:24.446Z,9.69
2023-02-18T06:26:50.885Z,9.60
2023-02-18T06:29:17.294Z,9.59
2023-02-18T06:31:43.922Z,9.54
2023-02-18T06:34:16.720Z,9.80
2023-02-18T06:36:43.275Z,9.75
2023-02-18T06:39:09.723Z,9.59
2023-02-18T06:41:36.209Z,9.66
2023-02-18T06:44:04.053Z,9.50
2023-02-18T06:46:30.546Z,9.65
2023-02-18T06:48:56.986Z,9.72
2023-02-18T06:51:23.532Z,9.62
2023-02-18T06:53:50.069Z,9.49
2023-02-18T06:56:17.205Z,9.42
2023-02-18T06:58:43.687Z,9.50
2023-02-18T07:01:10.316Z,9.60
2023-02-18T07:03:36.853Z,9.56
2023-02-18T07:06:03.734Z,9.59
2023-02-18T07:08:30.954Z,9.61
2023-02-18T07:10:57.441Z,9.71
2023-02-18T07:13:23.931Z,9.69
2023-02-18T07:15:50.382Z,9.70
2023-02-18T07:18:22.935Z,9.59
2023-02-18T07:20:51.418Z,9.70
2023-02-18T07:23:23.001Z,9.64
2023-02-18T07:25:49.494Z,9.54
2023-02-18T07:28:16.451Z,9.64
2023-02-18T07:30:42.939Z,9.52
2023-02-18T07:33:09.366Z,9.54
2023-02-18T07:35:39.005Z,9.75
2023-02-18T07:38:14.601Z,9.39
2023-02-18T07:40:41.150Z,9.59
2023-02-18T07:43:07.686Z,9.50
2023-02-18T07:45:34.163Z,9.67
2023-02-18T07:48:00.668Z,9.80
2023-02-18T07:50:27.340Z,9.50
2023-02-18T07:52:53.832Z,9.67
2023-02-18T07:55:20.292Z,9.64
2023-02-18T07:58:01.072Z,9.66
2023-02-18T08:00:33.303Z,9.63
2023-02-18T08:02:59.752Z,9.60
2023-02-18T08:05:26.276Z,9.76
2023-02-18T08:07:52.747Z,9.56
2023-02-18T08:10:19.301Z,9.63
2023-02-18T08:12:46.233Z,9.85
2023-02-18T08:15:13.585Z,9.80
2023-02-18T08:17:42.065Z,9.96
2023-02-18T08:20:10.951Z,9.86
2023-02-18T08:22:38.072Z,9.87
2023-02-18T08:25:05.407Z,9.84
2023-02-18T08:27:31.980Z,9.76
2023-02-18T08:29:58.453Z,9.77
2023-02-18T08:32:28.805Z,9.87
2023-02-18T08:34:55.887Z,10.00
2023-02-18T08:37:23.854Z,9.93
2023-02-18T08:39:50.508Z,10.02
2023-02-18T08:42:18.107Z,10.16
2023-02-18T08:44:44.672Z,10.05
2023-02-18T08:48:15.915Z,10.23
2023-02-18T08:50:06.912Z,10.52
2023-02-18T08:52:33.448Z,11.24
2023-02-18T08:55:06.794Z,11.43
2023-02-18T08:57:39.293Z,11.31
2023-02-18T09:00:07.052Z,11.42
2023-02-18T09:02:36.724Z,11.46
2023-02-18T09:05:09.721Z,11.41
2023-02-18T09:07:37.193Z,11.23
2023-02-18T09:10:04.606Z,11.26
2023-02-18T09:12:32.885Z,11.31
2023-02-18T09:15:00.484Z,11.77
2023-02-18T09:17:27.902Z,12.34
2023-02-18T09:19:54.625Z,12.47
2023-02-18T09:22:21.286Z,12.74
2023-02-18T09:24:47.753Z,12.08
2023-02-18T09:27:21.265Z,11.88
2023-02-18T09:29:49.850Z,11.68
2023-02-18T09:32:32.549Z,12.28
2023-02-18T09:35:02.707Z,11.86
2023-02-18T09:37:29.260Z,11.93
2023-02-18T09:39:56.041Z,12.66
2023-02-18T09:42:32.531Z,12.34
2023-02-18T09:45:03.991Z,12.19
2023-02-18T09:47:39.503Z,11.90
2023-02-18T09:50:28.710Z,11.91
2023-02-18T09:52:58.433Z,12.05
2023-02-18T09:55:39.368Z,11.96
2023-02-18T09:58:15.475Z,12.00
2023-02-18T10:00:48.539Z,12.13
2023-02-18T10:03:23.976Z,11.86
2023-02-18T10:05:59.402Z,12.71
2023-02-18T10:08:35.386Z,12.83
2023-02-18T10:11:02.335Z,12.58
2023-02-18T10:13:33.081Z,12.85
2023-02-18T10:16:00.490Z,12.08
2023-02-18T10:18:45.585Z,12.50
2023-02-18T10:21:16.494Z,12.67
2023-02-18T10:23:53.070Z,12.28
2023-02-18T10:26:20.557Z,12.48
2023-02-18T10:28:47.710Z,12.42
2023-02-18T10:31:28.688Z,12.18
2023-02-18T10:34:18.523Z,11.66
2023-02-18T10:36:58.465Z,11.90
2023-02-18T10:39:43.258Z,12.04
2023-02-18T10:42:09.695Z,12.01
2023-02-18T10:44:45.085Z,11.94
2023-02-18T10:47:19.521Z,11.81
2023-02-18T10:49:54.729Z,11.77
2023-02-18T10:52:21.484Z,11.96
2023-02-18T10:54:52.889Z,11.66
2023-02-18T10:57:22.505Z,12.16
2023-02-18T11:00:15.790Z,11.60
2023-02-18T11:02:42.714Z,11.55
2023-02-18T11:05:28.177Z,11.69
2023-02-18T11:07:58.567Z,11.94
2023-02-18T11:10:33.891Z,12.08
2023-02-18T11:13:09.378Z,12.16
2023-02-18T11:15:36.564Z,11.94
2023-02-18T11:18:25.611Z,12.01
2023-02-18T11:21:04.597Z,12.07
2023-02-18T11:23:45.131Z,11.95
2023-02-18T11:26:17.405Z,11.82
2023-02-18T11:28:47.992Z,11.88
2023-02-18T11:31:24.961Z,11.80
2023-02-18T11:34:03.163Z,12.21
2023-02-18T11:36:35.666Z,12.38
2023-02-18T11:39:24.649Z,12.18
2023-02-18T11:42:04.906Z,12.43
2023-02-18T11:44:38.345Z,12.55
2023-02-18T11:47:13.959Z,12.47
2023-02-18T11:49:43.429Z,12.23
2023-02-18T11:52:46.719Z,11.91
2023-02-18T11:55:18.775Z,12.15
2023-02-18T11:58:06.453Z,12.14
2023-02-18T12:00:48.608Z,12.03
2023-02-18T12:03:48.343Z,12.02
2023-02-18T12:06:32.285Z,12.12
2023-02-18T12:09:06.083Z,12.03
2023-02-18T12:11:40.296Z,11.96
2023-02-18T12:14:17.493Z,12.13
2023-02-18T12:16:50.263Z,11.96
2023-02-18T12:19:19.722Z,11.93
2023-02-18T12:22:06.596Z,12.04
2023-02-18T12:25:01.046Z,11.92
2023-02-18T12:28:17.330Z,11.91
2023-02-18T12:30:56.016Z,11.97
2023-02-18T12:33:28.309Z,12.20
2023-02-18T12:36:03.724Z,12.05
2023-02-18T12:38:38.909Z,11.95
2023-02-18T12:41:08.509Z,12.03
2023-02-18T12:43:38.175Z,12.15
2023-02-18T12:46:10.616Z,12.33
2023-02-18T12:48:56.887Z,12.39
2023-02-18T12:51:36.322Z,12.36
2023-02-18T12:54:13.778Z,12.34
2023-02-18T12:56:45.989Z,12.30
2023-02-18T12:59:53.258Z,12.32
2023-02-18T13:02:25.459Z,12.28
2023-02-18T13:04:51.889Z,12.28
2023-02-18T13:07:40.493Z,12.18
2023-02-18T13:10:28.407Z,12.11
2023-02-18T13:13:18.351Z,12.04
2023-02-18T13:15:56.905Z,12.35
2023-02-18T13:18:42.214Z,12.33
2023-02-18T13:21:14.102Z,12.30
2023-02-18T13:24:06.155Z,12.15
2023-02-18T13:26:34.274Z,12.08
2023-02-18T13:29:24.721Z,12.00
2023-02-18T13:32:12.281Z,12.01
2023-02-18T13:35:09.955Z,12.03
2023-02-18T13:38:04.239Z,12.23
2023-02-18T13:40:32.875Z,11.92
2023-02-18T13:43:27.140Z,12.01
2023-02-18T13:46:17.456Z,11.98
2023-02-18T13:49:07.304Z,11.97
2023-02-18T13:51:41.246Z,12.10
2023-02-18T13:54:10.635Z,12.07
2023-02-18T13:56:46.751Z,12.20
2023-02-18T13:59:36.248Z,12.13
2023-02-18T14:02:48.879Z,11.94
2023-02-18T14:05:21.788Z,12.02
2023-02-18T14:08:06.352Z,12.15
2023-02-18T14:10:35.701Z,11.92
2023-02-18T14:13:20.810Z,12.03
2023-02-18T14:15:59.456Z,12.27
2023-02-18T14:18:58.952Z,12.06
2023-02-18T14:21:42.597Z,12.08
2023-02-18T14:24:13.522Z,11.93
2023-02-18T14:26:49.485Z,11.79
2023-02-18T14:29:30.967Z,11.93
2023-02-18T14:32:04.925Z,11.90
2023-02-18T14:34:49.646Z,11.88
2023-02-18T14:37:36.258Z,11.82
2023-02-18T14:40:27.017Z,11.81
2023-02-18T14:43:25.696Z,11.73
2023-02-18T14:46:23.376Z,11.63
2023-02-18T14:48:59.770Z,11.76
2023-02-18T14:51:29.488Z,11.91
2023-02-18T14:53:56.020Z,11.66
2023-02-18T14:56:24.939Z,11.59
2023-02-18T14:58:59.923Z,11.63
2023-02-18T15:01:35.980Z,11.43
2023-02-18T15:04:04.338Z,11.27
2023-02-18T15:06:33.581Z,11.13
2023-02-18T15:09:03.906Z,11.18
2023-02-18T15:11:43.391Z,11.12
2023-02-18T15:14:16.764Z,11.22
2023-02-18T15:16:44.777Z,11.03
2023-02-18T15:19:20.198Z,11.15
2023-02-18T15:21:51.271Z,10.90
2023-02-18T15:24:18.944Z,10.93
2023-02-18T15:26:50.605Z,11.05
2023-02-18T15:29:23.083Z,10.93
2023-02-18T15:31:49.950Z,10.88
2023-02-18T15:34:35.362Z,10.62
2023-02-18T15:37:13.947Z,10.62
2023-02-18T15:39:42.999Z,10.97
2023-02-18T15:42:34.456Z,10.81
2023-02-18T15:45:16.885Z,10.67
2023-02-18T15:47:48.082Z,10.80
2023-02-18T15:50:26.650Z,10.93
2023-02-18T15:52:55.363Z,10.81
2023-02-18T15:55:33.919Z,10.85
2023-02-18T15:58:22.941Z,10.66
2023-02-18T16:00:56.436Z,10.65
2023-02-18T16:03:24.501Z,10.68
2023-02-18T16:05:52.289Z,10.61
2023-02-18T16:08:27.793Z,10.68
2023-02-18T16:11:13.615Z,10.55
2023-02-18T16:13:48.125Z,10.62
2023-02-18T16:16:34.063Z,10.65
2023-02-18T16:19:01.361Z,10.73
2023-02-18T16:21:46.789Z,10.63
2023-02-18T16:24:25.667Z,10.73
2023-02-18T16:26:56.590Z,10.54
2023-02-18T16:29:35.048Z,10.44
2023-02-18T16:32:01.903Z,10.50
2023-02-18T16:34:30.517Z,10.67
2023-02-18T16:37:22.265Z,10.52
2023-02-18T16:39:51.981Z,10.65
2023-02-18T16:42:18.676Z,10.48
2023-02-18T16:44:50.612Z,10.63
2023-02-18T16:47:28.323Z,10.53
2023-02-18T16:49:55.311Z,10.43
2023-02-18T16:52:22.777Z,10.28
2023-02-18T16:54:50.302Z,10.42
2023-02-18T16:57:16.843Z,10.32
2023-02-18T16:59:45.365Z,10.20
2023-02-18T17:02:22.507Z,10.31
2023-02-18T17:04:58.412Z,10.32
2023-02-18T17:07:24.974Z,10.23
2023-02-18T17:09:53.521Z,10.16
2023-02-18T17:12:19.982Z,10.30
2023-02-18T17:14:46.924Z,10.24
2023-02-18T17:17:22.573Z,10.33
2023-02-18T17:19:49.448Z,10.24
2023-02-18T17:22:15.986Z,10.21
2023-02-18T17:24:42.719Z,10.14
2023-02-18T17:27:11.109Z,10.21
2023-02-18T17:29:37.595Z,10.01
2023-02-18T17:32:08.211Z,10.04
2023-02-18T17:34:36.183Z,9.85
2023-02-18T17:37:03.061Z,9.74
2023-02-18T17:39:31.412Z,10.04
2023-02-18T17:42:01.003Z,9.90
2023-02-18T17:44:29.153Z,9.96
2023-02-18T17:46:56.096Z,10.23
2023-02-18T17:49:23.650Z,10.16
2023-02-18T17:51:59.365Z,10.02
2023-02-18T17:54:28.071Z,10.20
2023-02-18T17:56:55.651Z,9.84
2023-02-18T17:59:22.614Z,10.14
2023-02-18T18:01:55.236Z,10.11
2023-02-18T18:04:21.734Z,9.94
2023-02-18T18:06:50.050Z,10.07
2023-02-18T18:09:17.520Z,10.08
2023-02-18T18:11:59.174Z,10.19
2023-02-18T18:14:31.861Z,9.87
2023-02-18T18:17:00.259Z,10.01
2023-02-18T18:19:33.774Z,9.82
2023-02-18T18:22:00.334Z,9.94
2023-02-18T18:24:26.985Z,9.98
2023-02-18T18:26:57.978Z,9.90
2023-02-18T18:29:28.463Z,9.92
2023-02-18T18:31:54.934Z,10.03
2023-02-18T18:34:23.531Z,9.86
2023-02-18T18:36:51.054Z,9.90
2023-02-18T18:39:23.312Z,9.89
2023-02-18T18:41:49.976Z,9.91
2023-02-18T18:44:22.652Z,9.92
2023-02-18T18:46:49.137Z,9.70
2023-02-18T18:49:16.612Z,9.75
2023-02-18T18:51:43.368Z,9.84
2023-02-18T18:54:11.926Z,9.71
2023-02-18T18:56:38.487Z,9.79
2023-02-18T18:59:05.283Z,9.82
2023-02-18T19:01:33.151Z,9.84
2023-02-18T19:03:59.701Z,9.67
2023-02-18T19:06:26.461Z,9.67
2023-02-18T19:08:52.909Z,9.75
2023-02-18T19:11:19.359Z,9.58
2023-02-18T19:13:45.980Z,9.58
2023-02-18T19:16:37.335Z,9.48
2023-02-18T19:19:03.881Z,9.50
2023-02-18T19:21:31.690Z,9.58
2023-02-18T19:23:59.835Z,9.53
2023-02-18T19:26:26.278Z,9.47
2023-02-18T19:28:52.755Z,9.77
2023-02-18T19:31:24.297Z,9.62
2023-02-18T19:33:51.605Z,9.31
2023-02-18T19:36:19.213Z,9.48
2023-02-18T19:38:53.005Z,9.41
2023-02-18T19:41:19.519Z,9.45
2023-02-18T19:43:48.871Z,9.65
2023-02-18T19:46:23.540Z,9.41
2023-02-18T19:48:53.844Z,9.41
2023-02-18T19:51:21.657Z,9.44
2023-02-18T19:53:48.164Z,9.50
2023-02-18T19:56:14.649Z,9.46
2023-02-18T19:58:42.453Z,9.40
2023-02-18T20:01:16.471Z,9.28
2023-02-18T20:03:44.796Z,9.26
2023-02-18T20:06:21.819Z,9.21
2023-02-18T20:08:50.258Z,9.31
2023-02-18T20:11:25.914Z,9.11
2023-02-18T20:13:54.315Z,9.08
2023-02-18T20:16:20.847Z,9.27
2023-02-18T20:18:47.410Z,9.14
2023-02-18T20:21:13.997Z,9.18
2023-02-18T20:23:40.931Z,9.11
2023-02-18T20:26:08.991Z,9.19
2023-02-18T20:28:35.624Z,9.22
2023-02-18T20:31:11.376Z,9.21
2023-02-18T20:33:38.709Z,9.23
2023-02-18T20:36:07.037Z,9.28
2023-02-18T20:38:34.127Z,9.06
2023-02-18T20:41:14.445Z,9.15
2023-02-18T20:43:42.075Z,9.07
2023-02-18T20:46:12.288Z,8.91
2023-02-18T20:48:43.093Z,8.93
2023-02-18T20:51:22.306Z,8.88
2023-02-18T20:53:50.186Z,8.96
2023-02-18T20:56:22.010Z,8.92
2023-02-18T20:58:51.942Z,9.15
2023-02-18T21:01:20.850Z,9.00
2023-02-18T21:03:48.024Z,9.07
2023-02-18T21:06:17.529Z,9.01
2023-02-18T21:08:47.373Z,8.98
2023-02-18T21:11:17.251Z,9.13
2023-02-18T21:13:47.070Z,8.83
2023-02-18T21:16:14.577Z,9.03
2023-02-18T21:18:41.239Z,9.04
2023-02-18T21:21:09.736Z,8.98
2023-02-18T21:23:39.475Z,9.11
2023-02-18T21:26:18.924Z,8.69
2023-02-18T21:28:58.615Z,8.90
2023-02-18T21:31:31.897Z,9.01
2023-02-18T21:34:00.771Z,8.90
2023-02-18T21:36:27.864Z,8.95
2023-02-18T21:38:56.535Z,8.77
2023-02-18T21:41:24.137Z,8.82
2023-02-18T21:43:50.876Z,8.78
2023-02-18T21:46:29.384Z,8.89
2023-02-18T21:49:02.638Z,8.82
2023-02-18T21:51:49.025Z,8.68
2023-02-18T21:54:21.758Z,8.80
2023-02-18T21:56:50.037Z,8.67
2023-02-18T21:59:18.679Z,8.69
2023-02-18T22:01:46.841Z,8.88
2023-02-18T22:04:13.373Z,8.49
2023-02-18T22:06:39.953Z,8.47
2023-02-18T22:09:07.107Z,8.40
2023-02-18T22:11:34.391Z,8.36
2023-02-18T22:14:01.084Z,8.66
2023-02-18T22:16:29.788Z,8.68
2023-02-18T22:18:57.368Z,8.82
2023-02-18T22:21:33.059Z,8.69
2023-02-18T22:23:59.636Z,8.58
2023-02-18T22:26:26.103Z,8.50
2023-02-18T22:28:58.294Z,8.63
2023-02-18T22:31:26.572Z,8.54
2023-02-18T22:33:53.614Z,8.76
2023-02-18T22:36:22.030Z,8.44
2023-02-18T22:38:49.383Z,8.66
2023-02-18T22:41:18.507Z,8.62
2023-02-18T22:43:45.675Z,8.78
2023-02-18T22:46:16.310Z,8.44
2023-02-18T22:48:44.407Z,8.79
2023-02-18T22:51:19.978Z,8.80
2023-02-18T22:53:46.718Z,8.44
2023-02-18T22:56:16.582Z,8.63
2023-02-18T22:58:43.757Z,8.87
2023-02-18T23:01:29.469Z,8.80
2023-02-18T23:04:13.683Z,8.61
2023-02-18T23:06:42.696Z,8.48
2023-02-18T23:09:13.901Z,8.56
2023-02-18T23:11:40.592Z,8.54
2023-02-18T23:14:19.260Z,8.61
2023-02-18T23:17:14.954Z,8.55
2023-02-18T23:19:43.108Z,8.46
2023-02-18T23:22:11.634Z,8.50
2023-02-18T23:24:41.616Z,8.70
2023-02-18T23:27:10.225Z,8.72
2023-02-18T23:29:37.397Z,8.46
2023-02-18T23:32:04.990Z,8.72
2023-02-18T23:34:32.836Z,8.53
2023-02-18T23:36:59.439Z,8.55
2023-02-18T23:39:26.716Z,8.41
2023-02-18T23:41:53.464Z,8.32
2023-02-18T23:44:22.263Z,8.30
2023-02-18T23:46:49.080Z,8.34
2023-02-18T23:49:24.186Z,8.49
2023-02-18T23:51:53.079Z,8.54
2023-02-18T23:54:20.232Z,8.47
2023-02-18T23:56:46.961Z,8.43
2023-02-18T23:59:13.655Z,8.64
